createdAt,value
2022-08-21T00:00:46.374Z,101625.06
2022-08-21T00:03:15.479Z,101633.94
2022-08-21T00:05:47.091Z,101630.44
2022-08-21T00:08:15.808Z,101630.50
2022-08-21T00:10:45.252Z,101627.00
2022-08-21T00:13:18.764Z,101622.66
2022-08-21T00:15:48.756Z,101614.78
2022-08-21T00:18:18.474Z,101619.25
2022-08-21T00:20:47.751Z,101621.94
2022-08-21T00:23:16.080Z,101622.00
2022-08-21T00:25:45.170Z,101627.34
2022-08-21T00:28:15.499Z,101614.16
2022-08-21T00:30:44.776Z,101608.91
2022-08-21T00:33:14.068Z,101615.13
2022-08-21T00:35:44.807Z,101619.59
2022-08-21T00:38:13.753Z,101611.69
2022-08-21T00:40:48.264Z,101620.59
2022-08-21T00:43:22.551Z,101614.44
2022-08-21T00:45:50.862Z,101615.34
2022-08-21T00:48:19.407Z,101615.41
2022-08-21T00:50:55.438Z,101617.25
2022-08-21T00:53:25.379Z,101617.28
2022-08-21T00:55:54.362Z,101618.19
2022-08-21T00:58:28.754Z,101627.97
2022-08-21T01:00:59.032Z,101626.25
2022-08-21T01:03:27.690Z,101619.22
2022-08-21T01:05:56.649Z,101625.44
2022-08-21T01:08:26.064Z,101622.81
2022-08-21T01:10:55.961Z,101625.50
2022-08-21T01:13:26.462Z,101623.78
2022-08-21T01:16:00.275Z,101622.03
2022-08-21T01:18:29.465Z,101620.31
2022-08-21T01:21:10.235Z,101622.09
2022-08-21T01:23:45.985Z,101621.28
2022-08-21T01:26:18.365Z,101627.47
2022-08-21T01:28:52.274Z,101629.25
2022-08-21T01:31:26.178Z,101629.28
2022-08-21T01:33:55.711Z,101632.81
2022-08-21T01:36:26.261Z,101629.34
2022-08-21T01:38:54.728Z,101632.84
2022-08-21T01:41:22.977Z,101628.47
2022-08-21T01:43:51.545Z,101621.41
2022-08-21T01:46:19.748Z,101624.97
2022-08-21T01:48:47.914Z,101624.09
2022-08-21T01:51:16.047Z,101626.78
2022-08-21T01:53:45.841Z,101619.75
2022-08-21T01:56:16.695Z,101611.84
2022-08-21T01:58:47.921Z,101616.28
2022-08-21T02:01:17.169Z,101620.72
2022-08-21T02:03:45.454Z,101611.94
2022-08-21T02:06:18.777Z,101617.25
2022-08-21T02:08:51.436Z,101616.41
2022-08-21T02:11:19.788Z,101613.78
2022-08-21T02:13:48.026Z,101612.03
2022-08-21T02:16:19.200Z,101607.69
2022-08-21T02:18:48.310Z,101607.72
2022-08-21T02:21:16.523Z,101603.31
2022-08-21T02:23:44.897Z,101596.31
2022-08-21T02:26:14.982Z,101598.13
2022-08-21T02:28:43.673Z,101591.06
2022-08-21T02:31:12.530Z,101591.97
2022-08-21T02:33:41.915Z,101591.09
2022-08-21T02:36:11.479Z,101593.75
2022-08-21T02:38:41.974Z,101591.09
2022-08-21T02:41:15.199Z,101591.97
2022-08-21T02:43:44.067Z,101594.63
2022-08-21T02:46:15.401Z,101590.22
2022-08-21T02:48:43.922Z,101591.09
2022-08-21T02:51:15.991Z,101582.25
2022-08-21T02:53:44.768Z,101584.03
2022-08-21T02:56:18.791Z,101588.44
2022-08-21T02:58:50.222Z,101577.88
2022-08-21T03:01:18.438Z,101576.97
2022-08-21T03:03:50.926Z,101572.53
2022-08-21T03:06:22.543Z,101572.53
2022-08-21T03:08:51.833Z,101574.31
2022-08-21T03:11:21.775Z,101562.88
2022-08-21T03:13:49.906Z,101564.66
2022-08-21T03:16:19.722Z,101567.31
2022-08-21T03:18:48.024Z,101570.81
2022-08-21T03:21:16.989Z,101562.00
2022-08-21T03:23:45.020Z,101562.88
2022-08-21T03:26:13.426Z,101556.72
2022-08-21T03:28:43.443Z,101556.72
2022-08-21T03:31:11.494Z,101550.56
2022-08-21T03:33:39.632Z,101556.75
2022-08-21T03:36:10.228Z,101556.78
2022-08-21T03:38:39.950Z,101550.59
2022-08-21T03:41:09.455Z,101554.13
2022-08-21T03:43:39.575Z,101547.97
2022-08-21T03:46:09.328Z,101547.97
2022-08-21T03:48:40.449Z,101538.31
2022-08-21T03:51:09.099Z,101548.00
2022-08-21T03:53:37.332Z,101540.13
2022-08-21T03:56:06.669Z,101541.00
2022-08-21T03:58:34.883Z,101545.41
2022-08-21T04:01:05.503Z,101542.81
2022-08-21T04:03:37.838Z,101546.31
2022-08-21T04:06:07.161Z,101551.59
2022-08-21T04:08:35.993Z,101541.03
2022-08-21T04:11:04.477Z,101543.69
2022-08-21T04:13:32.749Z,101549.84
2022-08-21T04:16:00.883Z,101543.69
2022-08-21T04:18:29.162Z,101544.53
2022-08-21T04:21:03.209Z,101544.59
2022-08-21T04:23:33.104Z,101544.59
2022-08-21T04:26:01.358Z,101536.66
2022-08-21T04:28:31.135Z,101545.50
2022-08-21T04:31:00.125Z,101548.13
2022-08-21T04:33:28.343Z,101553.44
2022-08-21T04:35:57.945Z,101544.63
2022-08-21T04:38:27.143Z,101549.03
2022-08-21T04:41:05.721Z,101547.31
2022-08-21T04:43:34.240Z,101546.41
2022-08-21T04:46:02.862Z,101553.47
2022-08-21T04:48:31.112Z,101551.69
2022-08-21T04:51:07.737Z,101553.47
2022-08-21T04:53:40.835Z,101554.34
2022-08-21T04:56:13.757Z,101559.63
2022-08-21T04:58:42.748Z,101556.94
2022-08-21T05:01:21.570Z,101559.56
2022-08-21T05:03:51.837Z,101554.25
2022-08-21T05:06:22.206Z,101553.34
2022-08-21T05:09:01.486Z,101552.44
2022-08-21T05:11:31.678Z,101558.53
2022-08-21T05:14:00.220Z,101559.41
2022-08-21T05:16:36.708Z,101558.47
2022-08-21T05:19:06.450Z,101560.19
2022-08-21T05:21:36.187Z,101553.94
2022-08-21T05:24:05.178Z,101550.34
2022-08-21T05:26:33.663Z,101563.50
2022-08-21T05:29:13.587Z,101568.69
2022-08-21T05:31:41.742Z,101567.75
2022-08-21T05:34:10.075Z,101561.53
2022-08-21T05:36:39.761Z,101563.22
2022-08-21T05:39:07.911Z,101566.69
2022-08-21T05:41:36.094Z,101569.22
2022-08-21T05:44:04.903Z,101568.22
2022-08-21T05:46:38.585Z,101573.41
2022-08-21T05:49:06.724Z,101566.22
2022-08-21T05:51:35.000Z,101566.09
2022-08-21T05:54:05.380Z,101557.19
2022-08-21T05:56:33.778Z,101561.44
2022-08-21T05:59:01.970Z,101558.66
2022-08-21T06:01:31.809Z,101558.50
2022-08-21T06:04:00.172Z,101551.34
2022-08-21T06:06:29.637Z,101552.94
2022-08-21T06:08:57.685Z,101550.19
2022-08-21T06:11:29.148Z,101546.50
2022-08-21T06:14:01.009Z,101556.03
2022-08-21T06:16:30.566Z,101550.56
2022-08-21T06:19:02.637Z,101555.72
2022-08-21T06:21:31.330Z,101553.81
2022-08-21T06:23:59.547Z,101558.09
2022-08-21T06:26:30.148Z,101556.19
2022-08-21T06:28:58.343Z,101555.16
2022-08-21T06:31:29.678Z,101556.78
2022-08-21T06:33:58.310Z,101555.75
2022-08-21T06:36:26.469Z,101563.56
2022-08-21T06:38:54.559Z,101564.28
2022-08-21T06:41:26.464Z,101566.81
2022-08-21T06:43:58.238Z,101564.84
2022-08-21T06:46:28.323Z,101570.91
2022-08-21T06:48:57.007Z,101567.16
2022-08-21T06:51:26.817Z,101566.00
2022-08-21T06:53:55.373Z,101559.50
2022-08-21T06:56:23.559Z,101566.34
2022-08-21T06:58:51.826Z,101561.63
2022-08-21T07:01:22.172Z,101557.81
2022-08-21T07:03:53.859Z,101560.25
2022-08-21T07:06:21.955Z,101555.53
2022-08-21T07:08:50.104Z,101553.47
2022-08-21T07:11:22.257Z,101558.47
2022-08-21T07:13:53.512Z,101553.78
2022-08-21T07:16:23.974Z,101551.75
2022-08-21T07:18:52.120Z,101549.69
2022-08-21T07:21:25.230Z,101551.22
2022-08-21T07:23:54.657Z,101549.13
2022-08-21T07:26:24.906Z,101554.16
2022-08-21T07:28:53.677Z,101553.88
2022-08-21T07:31:26.273Z,101550.94
2022-08-21T07:33:56.461Z,101555.97
2022-08-21T07:36:24.990Z,101544.97
2022-08-21T07:38:53.215Z,101546.53
2022-08-21T07:41:25.616Z,101548.84
2022-08-21T07:43:53.823Z,101551.22
2022-08-21T07:46:23.296Z,101551.69
2022-08-21T07:48:51.429Z,101548.69
2022-08-21T07:51:26.456Z,101541.44
2022-08-21T07:53:57.274Z,101551.88
2022-08-21T07:56:25.544Z,101551.66
2022-08-21T07:58:53.792Z,101562.03
2022-08-21T08:01:24.609Z,101547.63
2022-08-21T08:03:53.070Z,101554.56
2022-08-21T08:06:21.258Z,101555.97
2022-08-21T08:08:49.631Z,101556.34
2022-08-21T08:11:18.461Z,101560.56
2022-08-21T08:13:49.710Z,101556.84
2022-08-21T08:16:18.324Z,101562.81
2022-08-21T08:18:48.363Z,101557.22
2022-08-21T08:21:17.082Z,101544.56
2022-08-21T08:23:46.056Z,101553.19
2022-08-21T08:26:14.637Z,101558.13
2022-08-21T08:28:42.752Z,101555.06
2022-08-21T08:31:11.015Z,101554.00
2022-08-21T08:33:39.667Z,101548.63
2022-08-21T08:36:16.741Z,101539.66
2022-08-21T08:38:45.072Z,101546.50
2022-08-21T08:41:17.486Z,101542.53
2022-08-21T08:43:53.913Z,101541.31
2022-08-21T08:46:31.271Z,101539.31
2022-08-21T08:49:05.181Z,101538.94
2022-08-21T08:51:45.564Z,101542.13
2022-08-21T08:54:20.165Z,101541.19
2022-08-21T08:56:48.732Z,101540.31
2022-08-21T08:59:21.050Z,101545.34
2022-08-21T09:01:49.559Z,101539.50
2022-08-21T09:04:24.859Z,101539.06
2022-08-21T09:07:08.666Z,101539.38
2022-08-21T09:09:54.379Z,101543.53
2022-08-21T09:12:35.684Z,101536.31
2022-08-21T09:15:14.937Z,101544.84
2022-08-21T09:18:07.952Z,101534.94
2022-08-21T09:20:43.459Z,101545.25
2022-08-21T09:23:27.392Z,101541.41
2022-08-21T09:26:03.532Z,101549.16
2022-08-21T09:28:35.699Z,101535.63
2022-08-21T09:31:08.418Z,101537.13
2022-08-21T09:33:36.978Z,101541.97
2022-08-21T09:36:06.350Z,101535.47
2022-08-21T09:38:38.879Z,101534.19
2022-08-21T09:41:10.858Z,101530.97
2022-08-21T09:43:40.522Z,101519.97
2022-08-21T09:46:12.668Z,101530.41
2022-08-21T09:48:47.599Z,101532.91
2022-08-21T09:51:20.175Z,101526.25
2022-08-21T09:53:55.103Z,101534.50
2022-08-21T09:56:51.298Z,101531.22
2022-08-21T09:59:27.072Z,101532.19
2022-08-21T10:01:56.730Z,101533.19
2022-08-21T10:04:30.301Z,101526.72
2022-08-21T10:07:09.777Z,101530.28
2022-08-21T10:09:39.927Z,101525.78
2022-08-21T10:12:19.149Z,101528.00
2022-08-21T10:14:57.069Z,101537.00
2022-08-21T10:17:33.698Z,101526.97
2022-08-21T10:20:08.037Z,101520.53
2022-08-21T10:22:47.389Z,101523.00
2022-08-21T10:25:27.554Z,101510.88
2022-08-21T10:28:13.521Z,101509.84
2022-08-21T10:30:58.710Z,101516.44
2022-08-21T10:33:37.473Z,101504.59
2022-08-21T10:36:15.741Z,101516.28
2022-08-21T10:39:25.243Z,101515.06
2022-08-21T10:42:21.848Z,101521.56
2022-08-21T10:45:13.436Z,101520.31
2022-08-21T10:47:56.050Z,101511.66
2022-08-21T10:50:33.682Z,101503.50
2022-08-21T10:53:31.829Z,101503.25
2022-08-21T10:56:07.294Z,101510.13
2022-08-21T10:58:44.632Z,101507.94
2022-08-21T11:01:20.378Z,101505.94
2022-08-21T11:03:54.301Z,101501.69
2022-08-21T11:06:27.588Z,101505.16
2022-08-21T11:09:02.037Z,101503.31
2022-08-21T11:11:38.049Z,101502.28
2022-08-21T11:14:32.092Z,101512.28
2022-08-21T11:17:12.166Z,101506.16
2022-08-21T11:20:06.638Z,101506.09
2022-08-21T11:22:54.549Z,101507.34
2022-08-21T11:25:33.763Z,101510.72
2022-08-21T11:28:14.603Z,101504.84
2022-08-21T11:30:57.029Z,101505.31
2022-08-21T11:33:45.182Z,101506.66
2022-08-21T11:36:25.095Z,101514.97
2022-08-21T11:39:00.787Z,101510.34
2022-08-21T11:41:34.402Z,101507.00
2022-08-21T11:44:14.060Z,101506.50
2022-08-21T11:46:52.020Z,101509.75
2022-08-21T11:49:38.377Z,101517.03
2022-08-21T11:52:15.847Z,101509.81
2022-08-21T11:54:49.085Z,101522.09
2022-08-21T11:57:24.072Z,101519.06
2022-08-21T12:00:01.809Z,101520.44
2022-08-21T12:02:37.367Z,101514.75
2022-08-21T12:05:10.542Z,101519.03
2022-08-21T12:07:42.043Z,101523.31
2022-08-21T12:10:14.264Z,101524.16
2022-08-21T12:12:46.205Z,101525.63
2022-08-21T12:15:28.387Z,101526.56
2022-08-21T12:18:05.997Z,101529.81
2022-08-21T12:20:50.841Z,101530.78
2022-08-21T12:23:31.131Z,101530.88
2022-08-21T12:26:27.497Z,101536.50
2022-08-21T12:29:17.098Z,101519.78
2022-08-21T12:31:56.414Z,101524.72
2022-08-21T12:34:38.580Z,101520.63
2022-08-21T12:37:17.488Z,101512.22
2022-08-21T12:39:49.118Z,101515.13
2022-08-21T12:42:21.354Z,101521.50
2022-08-21T12:44:55.195Z,101511.72
2022-08-21T12:47:31.974Z,101519.28
2022-08-21T12:50:07.992Z,101524.22
2022-08-21T12:52:42.650Z,101509.34
2022-08-21T12:55:14.584Z,101514.19
2022-08-21T12:57:43.830Z,101511.19
2022-08-21T13:00:21.992Z,101516.50
2022-08-21T13:02:52.981Z,101522.00
2022-08-21T13:05:36.552Z,101514.78
2022-08-21T13:08:08.915Z,101513.91
2022-08-21T13:10:38.405Z,101518.88
2022-08-21T13:13:13.217Z,101516.53
2022-08-21T13:15:47.657Z,101519.56
2022-08-21T13:18:25.413Z,101508.91
2022-08-21T13:21:05.273Z,101513.38
2022-08-21T13:23:49.580Z,101519.63
2022-08-21T13:26:21.200Z,101517.47
2022-08-21T13:28:51.319Z,101518.19
2022-08-21T13:31:24.292Z,101525.16
2022-08-21T13:33:53.242Z,101521.19
2022-08-21T13:36:30.162Z,101515.13
2022-08-21T13:38:58.701Z,101524.41
2022-08-21T13:41:30.269Z,101519.28
2022-08-21T13:44:02.449Z,101522.78
2022-08-21T13:46:38.189Z,101528.72
2022-08-21T13:49:08.489Z,101527.94
2022-08-21T13:51:39.086Z,101530.69
2022-08-21T13:54:19.269Z,101533.72
2022-08-21T13:56:48.645Z,101540.13
2022-08-21T13:59:29.286Z,101534.59
2022-08-21T14:02:01.935Z,101540.03
2022-08-21T14:04:37.785Z,101532.53
2022-08-21T14:07:19.617Z,101532.47
2022-08-21T14:09:48.956Z,101532.44
2022-08-21T14:12:25.279Z,101530.53
2022-08-21T14:14:55.719Z,101540.16
2022-08-21T14:17:33.315Z,101532.88
2022-08-21T14:20:02.831Z,101527.09
2022-08-21T14:22:44.339Z,101526.94
2022-08-21T14:25:15.865Z,101526.09
2022-08-21T14:27:50.845Z,101535.09
2022-08-21T14:30:23.825Z,101528.06
2022-08-21T14:32:53.070Z,101527.56
2022-08-21T14:35:23.588Z,101524.78
2022-08-21T14:37:55.535Z,101530.78
2022-08-21T14:40:25.735Z,101533.81
2022-08-21T14:42:54.763Z,101528.50
2022-08-21T14:45:31.343Z,101528.22
2022-08-21T14:48:00.681Z,101534.22
2022-08-21T14:50:28.895Z,101540.44
2022-08-21T14:52:58.560Z,101532.72
2022-08-21T14:55:28.166Z,101540.44
2022-08-21T14:57:59.534Z,101526.88
2022-08-21T15:00:35.563Z,101530.47
2022-08-21T15:03:05.171Z,101540.63
2022-08-21T15:05:34.138Z,101528.00
2022-08-21T15:08:05.202Z,101531.66
2022-08-21T15:10:41.340Z,101524.38
2022-08-21T15:13:21.181Z,101530.38
2022-08-21T15:15:53.627Z,101534.28
2022-08-21T15:18:22.280Z,101537.13
2022-08-21T15:20:50.939Z,101538.31
2022-08-21T15:23:21.249Z,101530.19
2022-08-21T15:25:51.045Z,101532.38
2022-08-21T15:28:21.253Z,101534.81
2022-08-21T15:30:53.726Z,101543.38
2022-08-21T15:33:22.438Z,101543.06
2022-08-21T15:35:50.696Z,101545.75
2022-08-21T15:38:20.251Z,101542.56
2022-08-21T15:40:52.331Z,101548.41
2022-08-21T15:43:29.925Z,101551.13
2022-08-21T15:46:00.983Z,101541.13
2022-08-21T15:48:31.043Z,101544.03
2022-08-21T15:50:59.152Z,101539.84
2022-08-21T15:53:28.752Z,101539.06
2022-08-21T15:55:57.030Z,101543.19
2022-08-21T15:58:25.319Z,101548.19
2022-08-21T16:00:53.520Z,101545.13
2022-08-21T16:03:22.922Z,101543.19
2022-08-21T16:05:53.264Z,101548.22
2022-08-21T16:08:22.005Z,101565.56
2022-08-21T16:10:52.110Z,101552.34
2022-08-21T16:13:27.137Z,101563.78
2022-08-21T16:15:55.661Z,101555.38
2022-08-21T16:18:26.529Z,101555.31
2022-08-21T16:20:54.786Z,101561.13
2022-08-21T16:23:23.072Z,101562.72
2022-08-21T16:25:52.769Z,101563.84
2022-08-21T16:28:22.642Z,101563.31
2022-08-21T16:30:52.493Z,101557.59
2022-08-21T16:33:28.734Z,101570.84
2022-08-21T16:35:57.009Z,101565.31
2022-08-21T16:38:25.106Z,101562.44
2022-08-21T16:40:55.036Z,101572.44
2022-08-21T16:43:26.338Z,101573.94
2022-08-21T16:45:55.204Z,101575.31
2022-08-21T16:48:24.366Z,101571.75
2022-08-21T16:50:52.694Z,101577.13
2022-08-21T16:53:20.812Z,101580.88
2022-08-21T16:55:50.443Z,101575.72
2022-08-21T16:58:26.637Z,101578.44
2022-08-21T17:00:55.477Z,101587.16
2022-08-21T17:03:30.340Z,101580.03
2022-08-21T17:05:58.486Z,101584.06
2022-08-21T17:08:26.770Z,101589.72
2022-08-21T17:10:55.979Z,101592.84
2022-08-21T17:13:27.223Z,101590.31
2022-08-21T17:15:55.828Z,101592.50
2022-08-21T17:18:26.534Z,101594.69
2022-08-21T17:20:55.010Z,101588.78
2022-08-21T17:23:23.138Z,101599.03
2022-08-21T17:25:55.970Z,101596.63
2022-08-21T17:28:30.561Z,101598.59
2022-08-21T17:31:02.386Z,101598.16
2022-08-21T17:33:42.772Z,101603.91
2022-08-21T17:36:11.293Z,101609.84
2022-08-21T17:38:39.747Z,101605.56
2022-08-21T17:41:08.469Z,101597.78
2022-08-21T17:43:39.161Z,101601.53
2022-08-21T17:46:07.703Z,101609.72
2022-08-21T17:48:35.836Z,101599.16
2022-08-21T17:51:04.045Z,101608.16
2022-08-21T17:53:32.249Z,101602.28
2022-08-21T17:56:00.348Z,101605.19
2022-08-21T17:58:28.513Z,101604.53
2022-08-21T18:00:58.587Z,101602.75
2022-08-21T18:03:26.783Z,101605.59
2022-08-21T18:05:56.909Z,101606.50
2022-08-21T18:08:25.143Z,101607.66
2022-08-21T18:10:53.884Z,101611.50
2022-08-21T18:13:28.484Z,101619.94
2022-08-21T18:16:01.235Z,101609.66
2022-08-21T18:18:34.661Z,101617.13
2022-08-21T18:21:02.785Z,101622.72
2022-08-21T18:23:44.220Z,101617.66
2022-08-21T18:26:16.175Z,101633.09
2022-08-21T18:28:45.104Z,101627.22
2022-08-21T18:31:15.183Z,101624.97
2022-08-21T18:33:57.981Z,101631.53
2022-08-21T18:36:27.949Z,101629.13
2022-08-21T18:39:13.430Z,101633.88
2022-08-21T18:41:48.807Z,101635.97
2022-08-21T18:44:19.989Z,101637.06
2022-08-21T18:46:56.342Z,101633.69
2022-08-21T18:49:24.545Z,101640.09
2022-08-21T18:51:52.753Z,101647.59
2022-08-21T18:54:21.110Z,101634.69
2022-08-21T18:56:51.328Z,101640.53
2022-08-21T18:59:30.738Z,101642.03
2022-08-21T19:02:00.352Z,101647.78
2022-08-21T19:07:20.447Z,101637.09
2022-08-21T19:10:07.560Z,101642.81
2022-08-21T19:12:39.426Z,101641.34
2022-08-21T19:15:11.024Z,101641.72
2022-08-21T19:17:41.698Z,101638.44
2022-08-21T19:20:25.640Z,101647.59
2022-08-21T19:22:56.336Z,101645.09
2022-08-21T19:25:33.787Z,101651.53
2022-08-21T19:28:11.280Z,101658.00
2022-08-21T19:30:45.765Z,101658.16
2022-08-21T19:33:23.996Z,101656.59
2022-08-21T19:35:52.825Z,101658.53
2022-08-21T19:38:21.428Z,101657.81
2022-08-21T19:40:49.962Z,101654.41
2022-08-21T19:43:23.256Z,101657.22
2022-08-21T19:45:54.381Z,101663.59
2022-08-21T19:48:24.286Z,101659.31
2022-08-21T19:50:53.137Z,101661.28
2022-08-21T19:53:21.777Z,101663.22
2022-08-21T19:55:50.084Z,101657.19
2022-08-21T19:58:35.268Z,101664.47
2022-08-21T20:01:11.566Z,101669.06
2022-08-21T20:03:54.009Z,101673.69
2022-08-21T20:06:25.549Z,101669.38
2022-08-21T20:08:55.607Z,101672.16
2022-08-21T20:14:22.438Z,101671.53
2022-08-21T20:16:52.709Z,101676.88
2022-08-21T20:19:23.262Z,101682.25
2022-08-21T20:21:51.702Z,101673.47
2022-08-21T20:24:19.780Z,101681.53
2022-08-21T20:26:49.974Z,101685.16
2022-08-21T20:29:23.846Z,101680.78
2022-08-21T20:31:54.570Z,101686.16
2022-08-21T20:37:13.719Z,101677.50
2022-08-21T20:40:01.857Z,101674.97
2022-08-21T20:42:30.249Z,101683.06
2022-08-21T20:44:58.495Z,101686.63
2022-08-21T20:47:26.620Z,101685.00
2022-08-21T20:50:05.105Z,101683.41
2022-08-21T20:52:36.997Z,101684.38
2022-08-21T20:55:13.898Z,101688.88
2022-08-21T20:57:50.985Z,101691.59
2022-08-21T21:00:22.859Z,101693.38
2022-08-21T21:03:01.170Z,101686.34
2022-08-21T21:05:39.766Z,101699.63
2022-08-21T21:08:16.031Z,101691.72
2022-08-21T21:10:50.748Z,101694.41
2022-08-21T21:13:27.723Z,101705.03
2022-08-21T21:16:01.438Z,101705.03
2022-08-21T21:18:36.581Z,101706.75
2022-08-21T21:21:20.557Z,101707.59
2022-08-21T21:23:56.860Z,101700.44
2022-08-21T21:26:32.135Z,101702.06
2022-08-21T21:29:13.097Z,101699.38
2022-08-21T21:31:42.536Z,101692.22
2022-08-21T21:34:17.101Z,101696.75
2022-08-21T21:37:01.372Z,101699.59
2022-08-21T21:39:36.629Z,101701.44
2022-08-21T21:42:13.466Z,101700.59
2022-08-21T21:45:00.171Z,101698.94
2022-08-21T21:47:45.248Z,101692.81
2022-08-21T21:50:34.549Z,101699.19
2022-08-21T21:53:24.431Z,101694.03
2022-08-21T21:56:08.196Z,101695.00
2022-08-21T21:58:55.005Z,101701.31
2022-08-21T22:01:34.735Z,101704.03
2022-08-21T22:04:10.122Z,101693.38
2022-08-21T22:06:51.209Z,101700.50
2022-08-21T22:09:42.286Z,101695.16
2022-08-21T22:12:29.409Z,101691.50
2022-08-21T22:14:58.243Z,101696.72
2022-08-21T22:17:36.385Z,101697.53
2022-08-21T22:20:25.096Z,101698.31
2022-08-21T22:22:57.211Z,101695.53
2022-08-21T22:25:31.813Z,101689.25
2022-08-21T22:28:06.998Z,101698.03
2022-08-21T22:30:45.353Z,101694.50
2022-08-21T22:33:20.217Z,101695.38
2022-08-21T22:35:51.588Z,101696.34
2022-08-21T22:38:33.320Z,101691.16
2022-08-21T22:44:07.497Z,101687.00
2022-08-21T22:46:50.258Z,101690.63
2022-08-21T22:49:31.821Z,101689.88
2022-08-21T22:52:11.651Z,101696.16
2022-08-21T22:54:45.241Z,101701.53
2022-08-21T22:57:28.192Z,101701.63
2022-08-21T23:00:00.626Z,101695.47
2022-08-21T23:02:38.737Z,101692.91
2022-08-21T23:05:19.286Z,101701.81
2022-08-21T23:07:50.744Z,101703.56
2022-08-21T23:10:29.348Z,101697.44
2022-08-21T23:13:09.541Z,101691.28
2022-08-21T23:15:49.786Z,101695.75
2022-08-21T23:18:29.739Z,101695.84
2022-08-21T23:21:10.873Z,101692.31
2022-08-21T23:23:59.279Z,101690.63
2022-08-21T23:26:34.235Z,101683.59
2022-08-21T23:29:24.700Z,101688.06
2022-08-21T23:32:04.603Z,101695.19
2022-08-21T23:34:44.141Z,101698.78
2022-08-21T23:37:51.435Z,101693.53
2022-08-21T23:40:51.339Z,101694.47
2022-08-21T23:43:43.354Z,101699.81
2022-08-21T23:46:35.792Z,101693.66
2022-08-21T23:49:22.531Z,101691.06
2022-08-21T23:55:10.537Z,101692.00
2022-08-21T23:57:54.665Z,101684.97
